createdAt,value
2023-11-30T00:02:09.931Z,99304.78
2023-11-30T00:04:31.807Z,99304.19
2023-11-30T00:06:53.692Z,99297.66
2023-11-30T00:09:15.607Z,99303.78
2023-11-30T00:11:37.513Z,99308.25
2023-11-30T00:13:59.399Z,99307.41
2023-11-30T00:16:21.290Z,99307.41
2023-11-30T00:18:43.252Z,99303.06
2023-11-30T00:21:06.154Z,99305.38
2023-11-30T00:23:28.256Z,99303.69
2023-11-30T00:25:50.118Z,99302.88
2023-11-30T00:28:11.961Z,99297.69
2023-11-30T00:30:34.027Z,99297.69
2023-11-30T00:32:56.398Z,99296.66
2023-11-30T00:35:18.333Z,99299.25
2023-11-30T00:37:40.197Z,99299.16
2023-11-30T00:40:02.132Z,99304.94
2023-11-30T00:42:24.941Z,99304.72
2023-11-30T00:44:46.839Z,99306.38
2023-11-30T00:47:09.035Z,99302.75
2023-11-30T00:49:30.902Z,99291.38
2023-11-30T00:51:52.843Z,99287.13
2023-11-30T00:54:14.782Z,99296.44
2023-11-30T00:56:36.705Z,99291.38
2023-11-30T00:58:58.657Z,99284.56
2023-11-30T01:01:21.472Z,99276.41
2023-11-30T01:03:43.662Z,99271.34
2023-11-30T01:06:05.970Z,99273.41
2023-11-30T01:08:27.959Z,99281.41
2023-11-30T01:10:49.860Z,99281.78
2023-11-30T01:13:11.800Z,99267.97
2023-11-30T01:15:33.668Z,99260.09
2023-11-30T01:17:55.619Z,99267.03
2023-11-30T01:20:18.362Z,99270.41
2023-11-30T01:22:40.558Z,99267.75
2023-11-30T01:25:02.447Z,99274.78
2023-11-30T01:27:24.353Z,99273.84
2023-11-30T01:29:46.567Z,99276.22
2023-11-30T01:32:08.581Z,99274.34
2023-11-30T01:34:30.533Z,99267.31
2023-11-30T01:36:52.565Z,99273.09
2023-11-30T01:39:16.659Z,99265.22
2023-11-30T01:41:38.610Z,99258.91
2023-11-30T01:44:00.508Z,99254.38
2023-11-30T01:46:22.785Z,99253.41
2023-11-30T01:48:45.528Z,99249.09
2023-11-30T01:51:09.900Z,99245.59
2023-11-30T01:53:32.065Z,99236.28
2023-11-30T01:55:54.447Z,99233.81
2023-11-30T01:58:16.315Z,99242.47
2023-11-30T02:00:38.767Z,99238.97
2023-11-30T02:03:02.422Z,99240.41
2023-11-30T02:05:24.322Z,99240.41
2023-11-30T02:07:46.217Z,99246.19
2023-11-30T02:10:08.599Z,99246.69
2023-11-30T02:12:30.658Z,99240.19
2023-11-30T02:14:52.602Z,99234.72
2023-11-30T02:17:14.805Z,99227.53
2023-11-30T02:19:36.737Z,99221.84
2023-11-30T02:21:58.679Z,99209.84
2023-11-30T02:24:20.674Z,99205.19
2023-11-30T02:26:42.729Z,99204.28
2023-11-30T02:29:04.715Z,99204.03
2023-11-30T02:31:26.679Z,99215.31
2023-11-30T02:33:48.633Z,99207.56
2023-11-30T02:36:11.035Z,99209.91
2023-11-30T02:38:32.943Z,99207.13
2023-11-30T02:40:54.940Z,99213.13
2023-11-30T02:43:16.873Z,99213.94
2023-11-30T02:45:38.776Z,99216.31
2023-11-30T02:48:00.827Z,99218.56
2023-11-30T02:50:22.815Z,99214.13
2023-11-30T02:52:44.721Z,99213.28
2023-11-30T02:55:07.374Z,99206.50
2023-11-30T02:57:29.450Z,99202.34
2023-11-30T02:59:51.357Z,99203.06
2023-11-30T03:02:15.354Z,99202.13
2023-11-30T03:04:37.433Z,99201.09
2023-11-30T03:06:59.300Z,99201.91
2023-11-30T03:09:21.360Z,99209.00
2023-11-30T03:11:43.498Z,99199.47
2023-11-30T03:14:05.426Z,99200.22
2023-11-30T03:16:28.897Z,99195.75
2023-11-30T03:18:59.214Z,99194.94
2023-11-30T03:21:28.644Z,99178.09
2023-11-30T03:23:52.719Z,99184.41
2023-11-30T03:26:18.233Z,99183.81
2023-11-30T03:28:40.106Z,99183.22
2023-11-30T03:31:04.882Z,99180.94
2023-11-30T03:33:26.772Z,99181.03
2023-11-30T03:35:51.743Z,99177.97
2023-11-30T03:38:13.655Z,99173.97
2023-11-30T03:40:35.531Z,99173.44
2023-11-30T03:42:57.453Z,99167.28
2023-11-30T03:45:19.338Z,99163.28
2023-11-30T03:47:41.264Z,99163.06
2023-11-30T03:50:03.416Z,99166.28
2023-11-30T03:52:25.279Z,99166.59
2023-11-30T03:54:47.285Z,99164.81
2023-11-30T03:57:09.218Z,99150.69
2023-11-30T03:59:32.406Z,99161.75
2023-11-30T04:01:55.925Z,99165.78
2023-11-30T04:04:17.880Z,99162.50
2023-11-30T04:06:39.899Z,99159.06
2023-11-30T04:09:01.961Z,99171.06
2023-11-30T04:11:23.840Z,99168.78
2023-11-30T04:13:46.906Z,99166.41
2023-11-30T04:16:09.408Z,99153.81
2023-11-30T04:18:31.379Z,99153.81
2023-11-30T04:20:53.400Z,99146.78
2023-11-30T04:23:15.419Z,99134.59
2023-11-30T04:25:37.329Z,99135.34
2023-11-30T04:27:59.260Z,99128.25
2023-11-30T04:30:21.250Z,99121.31
2023-11-30T04:32:43.329Z,99124.13
2023-11-30T04:35:06.541Z,99131.03
2023-11-30T04:37:28.407Z,99133.59
2023-11-30T04:39:50.262Z,99130.81
2023-11-30T04:42:13.728Z,99127.59
2023-11-30T04:44:40.615Z,99116.47
2023-11-30T04:47:02.517Z,99124.41
2023-11-30T04:49:24.379Z,99127.00
2023-11-30T04:51:46.471Z,99117.72
2023-11-30T04:54:10.588Z,99106.16
2023-11-30T04:56:32.463Z,99110.38
2023-11-30T04:58:54.648Z,99116.13
2023-11-30T05:01:16.613Z,99118.41
2023-11-30T05:03:39.496Z,99117.56
2023-11-30T05:06:04.580Z,99119.13
2023-11-30T05:08:28.790Z,99123.13
2023-11-30T05:10:50.678Z,99136.75
2023-11-30T05:13:12.632Z,99132.03
2023-11-30T05:15:39.155Z,99117.97
2023-11-30T05:18:01.153Z,99120.34
2023-11-30T05:20:23.175Z,99117.91
2023-11-30T05:22:44.993Z,99119.03
2023-11-30T05:25:08.881Z,99122.41
2023-11-30T05:27:30.764Z,99115.75
2023-11-30T05:29:52.716Z,99118.53
2023-11-30T05:32:14.658Z,99124.94
2023-11-30T05:34:39.279Z,99131.03
2023-11-30T05:37:01.130Z,99123.47
2023-11-30T05:39:23.054Z,99124.41
2023-11-30T05:41:44.975Z,99120.28
2023-11-30T05:44:07.152Z,99107.63
2023-11-30T05:46:29.066Z,99095.44
2023-11-30T05:48:50.973Z,99094.81
2023-11-30T05:51:14.721Z,99093.59
2023-11-30T05:53:37.080Z,99092.84
2023-11-30T05:55:59.727Z,99088.13
2023-11-30T05:58:21.585Z,99085.13
2023-11-30T06:00:44.182Z,99072.66
2023-11-30T06:03:08.870Z,99074.72
2023-11-30T06:05:31.001Z,99073.06
2023-11-30T06:07:52.892Z,99068.63
2023-11-30T06:10:16.111Z,99049.34
2023-11-30T06:12:39.874Z,99055.44
2023-11-30T06:15:01.805Z,99066.91
2023-11-30T06:17:23.756Z,99059.78
2023-11-30T06:19:46.326Z,99053.38
2023-11-30T06:22:08.184Z,99050.72
2023-11-30T06:24:31.085Z,99048.03
2023-11-30T06:26:53.221Z,99048.84
2023-11-30T06:29:16.976Z,99045.31
2023-11-30T06:31:38.932Z,99035.63
2023-11-30T06:34:00.794Z,99035.84
2023-11-30T06:36:22.681Z,99042.63
2023-11-30T06:38:45.008Z,99044.31
2023-11-30T06:41:13.893Z,99036.69
2023-11-30T06:43:35.898Z,99030.47
2023-11-30T06:45:58.014Z,99033.81
2023-11-30T06:48:20.204Z,99031.94
2023-11-30T06:50:42.206Z,99046.28
2023-11-30T06:53:04.101Z,99043.59
2023-11-30T06:55:25.958Z,99051.94
2023-11-30T06:57:48.120Z,99053.38
2023-11-30T07:00:11.849Z,99048.22
2023-11-30T07:02:33.893Z,99050.72
2023-11-30T07:04:55.908Z,99048.13
2023-11-30T07:07:27.882Z,99044.41
2023-11-30T07:09:55.845Z,99049.56
2023-11-30T07:12:17.798Z,99056.34
2023-11-30T07:14:50.631Z,99049.47
2023-11-30T07:17:13.627Z,99055.22
2023-11-30T07:19:39.390Z,99064.19
2023-11-30T07:22:01.309Z,99062.88
2023-11-30T07:24:23.219Z,99064.19
2023-11-30T07:26:49.517Z,99066.47
2023-11-30T07:29:11.440Z,99057.28
2023-11-30T07:31:33.494Z,99063.66
2023-11-30T07:33:55.532Z,99072.00
2023-11-30T07:36:17.541Z,99065.94
2023-11-30T07:38:39.419Z,99068.41
2023-11-30T07:41:02.026Z,99073.25
2023-11-30T07:43:23.878Z,99068.38
2023-11-30T07:45:45.779Z,99075.81
2023-11-30T07:48:07.754Z,99074.25
2023-11-30T07:50:29.983Z,99072.69
2023-11-30T07:52:53.436Z,99070.03
2023-11-30T07:55:15.497Z,99078.50
2023-11-30T07:57:37.519Z,99071.59
2023-11-30T07:59:59.422Z,99069.25
2023-11-30T08:02:21.407Z,99061.41
2023-11-30T08:04:43.480Z,99057.69
2023-11-30T08:07:05.418Z,99062.09
2023-11-30T08:09:28.395Z,99068.38
2023-11-30T08:11:51.056Z,99077.84
2023-11-30T08:14:13.238Z,99080.56
2023-11-30T08:16:35.586Z,99083.16
2023-11-30T08:18:58.079Z,99073.28
2023-11-30T08:21:22.677Z,99065.16
2023-11-30T08:23:45.008Z,99061.41
2023-11-30T08:26:07.242Z,99069.63
2023-11-30T08:28:29.114Z,99067.91
2023-11-30T08:30:52.245Z,99071.34
2023-11-30T08:33:14.214Z,99066.41
2023-11-30T08:35:36.152Z,99068.63
2023-11-30T08:37:58.055Z,99072.91
2023-11-30T08:40:22.637Z,99063.88
2023-11-30T08:42:44.597Z,99053.88
2023-11-30T08:45:07.414Z,99054.31
2023-11-30T08:47:29.356Z,99060.56
2023-11-30T08:49:51.243Z,99057.28
2023-11-30T08:52:13.076Z,99060.22
2023-11-30T08:54:35.040Z,99054.59
2023-11-30T08:56:57.848Z,99051.09
2023-11-30T08:59:20.442Z,99050.88
2023-11-30T09:01:45.384Z,99058.66
2023-11-30T09:04:09.760Z,99073.97
2023-11-30T09:06:34.322Z,99071.94
2023-11-30T09:08:56.571Z,99062.28
2023-11-30T09:11:18.481Z,99061.38
2023-11-30T09:13:40.321Z,99068.53
2023-11-30T09:16:02.591Z,99067.84
2023-11-30T09:18:24.439Z,99056.91
2023-11-30T09:20:46.291Z,99065.50
2023-11-30T09:23:08.173Z,99055.25
2023-11-30T09:25:30.304Z,99035.59
2023-11-30T09:27:52.186Z,99032.28
2023-11-30T09:30:15.457Z,99034.44
2023-11-30T09:32:38.405Z,99034.63
2023-11-30T09:35:00.319Z,99023.09
2023-11-30T09:37:22.778Z,99023.78
2023-11-30T09:39:45.696Z,99020.50
2023-11-30T09:42:07.955Z,99016.50
2023-11-30T09:44:29.890Z,99018.97
2023-11-30T09:46:52.032Z,99020.22
2023-11-30T09:49:13.984Z,99034.28
2023-11-30T09:51:36.548Z,99027.41
2023-11-30T09:53:58.962Z,99033.50
2023-11-30T09:56:20.955Z,99037.47
2023-11-30T09:58:43.482Z,99033.94
2023-11-30T10:01:08.794Z,99031.34
2023-11-30T10:03:35.190Z,99031.63
2023-11-30T10:05:57.099Z,99029.19
2023-11-30T10:08:19.324Z,99028.66
2023-11-30T10:10:41.273Z,99030.03
2023-11-30T10:13:03.879Z,99023.38
2023-11-30T10:15:26.699Z,99016.97
2023-11-30T10:17:49.956Z,99020.78
2023-11-30T10:20:12.758Z,99013.19
2023-11-30T10:22:34.725Z,99015.09
2023-11-30T10:24:56.670Z,99006.50
2023-11-30T10:27:25.275Z,99000.97
2023-11-30T10:29:50.447Z,99000.41
2023-11-30T10:32:14.690Z,99007.28
2023-11-30T10:34:50.884Z,99004.53
2023-11-30T10:37:19.205Z,98999.88
2023-11-30T10:39:44.319Z,98993.25
2023-11-30T10:42:13.933Z,98996.66
2023-11-30T10:44:39.145Z,98986.94
2023-11-30T10:47:02.111Z,99000.00
2023-11-30T10:49:26.341Z,98996.72
2023-11-30T10:51:53.355Z,98999.16
2023-11-30T10:54:58.843Z,98997.47
2023-11-30T10:57:22.202Z,98990.91
2023-11-30T10:59:49.064Z,98984.16
2023-11-30T11:02:13.718Z,98992.06
2023-11-30T11:04:42.069Z,98983.16
2023-11-30T11:07:13.434Z,98988.34
2023-11-30T11:09:43.225Z,98982.31
2023-11-30T11:12:05.363Z,98971.38
2023-11-30T11:14:33.810Z,98975.03
2023-11-30T11:17:08.184Z,98971.41
2023-11-30T11:19:33.536Z,98966.38
2023-11-30T11:21:55.612Z,98972.44
2023-11-30T11:24:23.764Z,98967.56
2023-11-30T11:26:56.708Z,98963.59
2023-11-30T11:29:24.351Z,98967.97
2023-11-30T11:31:52.743Z,98963.84
2023-11-30T11:34:15.312Z,98968.94
2023-11-30T11:36:38.502Z,98963.16
2023-11-30T11:39:00.394Z,98965.84
2023-11-30T11:41:22.370Z,98961.47
2023-11-30T11:43:44.205Z,98962.06
2023-11-30T11:46:06.605Z,98956.19
2023-11-30T11:48:28.513Z,98950.00
2023-11-30T11:51:00.429Z,98952.00
2023-11-30T11:53:23.350Z,98953.38
2023-11-30T11:55:45.296Z,98938.63
2023-11-30T11:58:07.345Z,98943.66
2023-11-30T12:00:29.337Z,98936.66
2023-11-30T12:02:52.494Z,98932.44
2023-11-30T12:05:26.531Z,98927.25
2023-11-30T12:07:57.737Z,98928.09
2023-11-30T12:10:40.201Z,98937.03
2023-11-30T12:13:03.939Z,98925.06
2023-11-30T12:15:26.020Z,98924.53
2023-11-30T12:17:47.956Z,98918.13
2023-11-30T12:20:10.316Z,98905.31
2023-11-30T12:22:32.196Z,98903.56
2023-11-30T12:24:54.511Z,98900.50
2023-11-30T12:27:16.447Z,98898.38
2023-11-30T12:29:38.499Z,98898.84
2023-11-30T12:32:00.524Z,98907.75
2023-11-30T12:34:22.569Z,98899.69
2023-11-30T12:36:44.537Z,98902.72
2023-11-30T12:39:07.096Z,98901.91
2023-11-30T12:41:28.954Z,98902.59
2023-11-30T12:43:50.831Z,98908.44
2023-11-30T12:46:12.861Z,98902.66
2023-11-30T12:48:34.964Z,98917.53
2023-11-30T12:50:56.917Z,98924.97
2023-11-30T12:53:19.067Z,98931.50
2023-11-30T12:55:41.241Z,98924.81
2023-11-30T12:58:03.119Z,98930.56
2023-11-30T13:00:24.991Z,98933.66
2023-11-30T13:02:48.976Z,98931.50
2023-11-30T13:05:12.905Z,98923.88
2023-11-30T13:07:34.799Z,98914.75
2023-11-30T13:09:57.008Z,98906.97
2023-11-30T13:12:18.941Z,98903.69
2023-11-30T13:14:40.835Z,98907.13
2023-11-30T13:17:02.718Z,98910.25
2023-11-30T13:19:25.425Z,98921.44
2023-11-30T13:21:47.735Z,98917.34
2023-11-30T13:24:09.707Z,98915.13
2023-11-30T13:26:33.588Z,98908.56
2023-11-30T13:28:55.470Z,98903.50
2023-11-30T13:31:17.669Z,98901.75
2023-11-30T13:33:39.619Z,98887.97
2023-11-30T13:36:01.699Z,98890.28
2023-11-30T13:38:23.674Z,98888.53
2023-11-30T13:40:46.669Z,98895.59
2023-11-30T13:43:08.676Z,98894.22
2023-11-30T13:45:31.323Z,98899.25
2023-11-30T13:47:53.204Z,98909.06
2023-11-30T13:50:26.207Z,98900.47
2023-11-30T13:52:53.035Z,98903.56
2023-11-30T13:55:15.582Z,98907.13
2023-11-30T13:57:37.441Z,98904.31
2023-11-30T13:59:59.337Z,98898.72
2023-11-30T14:02:21.247Z,98901.53
2023-11-30T14:04:43.141Z,98902.38
2023-11-30T14:07:05.184Z,98904.28
2023-11-30T14:09:27.792Z,98905.34
2023-11-30T14:11:49.769Z,98908.06
2023-11-30T14:14:12.240Z,98905.91
2023-11-30T14:16:34.294Z,98895.53
2023-11-30T14:18:56.211Z,98895.44
2023-11-30T14:21:19.475Z,98895.66
2023-11-30T14:23:41.366Z,98897.06
2023-11-30T14:26:03.293Z,98897.19
2023-11-30T14:28:27.234Z,98894.75
2023-11-30T14:30:49.383Z,98897.69
2023-11-30T14:33:14.159Z,98900.06
2023-11-30T14:35:36.314Z,98910.00
2023-11-30T14:37:58.282Z,98910.13
2023-11-30T14:40:21.115Z,98916.63
2023-11-30T14:42:43.256Z,98907.09
2023-11-30T14:45:07.343Z,98912.50
2023-11-30T14:47:34.467Z,98922.53
2023-11-30T14:49:56.376Z,98928.09
2023-11-30T14:52:18.252Z,98922.31
2023-11-30T14:54:40.517Z,98918.91
2023-11-30T14:57:04.722Z,98918.91
2023-11-30T14:59:28.086Z,98915.63
2023-11-30T15:01:50.144Z,98912.94
2023-11-30T15:04:12.249Z,98911.41
2023-11-30T15:06:34.251Z,98914.13
2023-11-30T15:08:56.174Z,98908.94
2023-11-30T15:11:18.169Z,98918.00
2023-11-30T15:13:40.039Z,98918.00
2023-11-30T15:16:02.053Z,98908.34
2023-11-30T15:18:24.634Z,98900.56
2023-11-30T15:20:46.853Z,98889.78
2023-11-30T15:23:08.762Z,98877.22
2023-11-30T15:25:30.664Z,98878.91
2023-11-30T15:27:52.775Z,98866.09
2023-11-30T15:30:16.388Z,98873.38
2023-11-30T15:32:39.254Z,98906.53
2023-11-30T15:35:01.239Z,98920.78
2023-11-30T15:37:23.238Z,98929.47
2023-11-30T15:39:45.134Z,98928.75
2023-11-30T15:42:07.056Z,98929.59
2023-11-30T15:44:28.903Z,98920.16
2023-11-30T15:46:50.764Z,98918.41
2023-11-30T15:49:13.306Z,98912.41
2023-11-30T15:51:40.797Z,98914.53
2023-11-30T15:54:02.669Z,98917.34
2023-11-30T15:56:24.720Z,98914.06
2023-11-30T15:58:47.883Z,98918.78
2023-11-30T16:01:11.899Z,98923.94
2023-11-30T16:03:33.846Z,98929.56
2023-11-30T16:05:55.766Z,98936.88
2023-11-30T16:08:18.369Z,98947.09
2023-11-30T16:10:40.238Z,98956.47
2023-11-30T16:13:02.705Z,98962.34
2023-11-30T16:15:25.799Z,98973.88
2023-11-30T16:17:50.246Z,98967.66
2023-11-30T16:20:12.974Z,98975.19
2023-11-30T16:22:34.998Z,98974.81
2023-11-30T16:24:57.102Z,98963.06
2023-11-30T16:27:21.235Z,98952.00
2023-11-30T16:29:43.227Z,98956.84
2023-11-30T16:32:05.729Z,98966.72
2023-11-30T16:34:32.001Z,98965.28
2023-11-30T16:36:53.909Z,98974.91
2023-11-30T16:39:16.432Z,98972.44
2023-11-30T16:41:38.274Z,98975.38
2023-11-30T16:44:00.312Z,98973.34
2023-11-30T16:46:22.358Z,98964.91
2023-11-30T16:48:45.454Z,98961.97
2023-11-30T16:51:07.927Z,98957.31
2023-11-30T16:53:29.845Z,98942.22
2023-11-30T16:55:52.247Z,98950.59
2023-11-30T16:58:14.121Z,98936.38
2023-11-30T17:00:36.122Z,98941.41
2023-11-30T17:02:58.413Z,98935.88
2023-11-30T17:05:21.698Z,98918.28
2023-11-30T17:07:46.562Z,98937.09
2023-11-30T17:10:09.611Z,98948.47
2023-11-30T17:12:31.536Z,98951.06
2023-11-30T17:14:53.400Z,98970.09
2023-11-30T17:17:15.373Z,98968.34
2023-11-30T17:19:37.314Z,98947.78
2023-11-30T17:21:59.413Z,98953.81
2023-11-30T17:24:22.090Z,98947.84
2023-11-30T17:26:44.746Z,98923.19
2023-11-30T17:29:06.616Z,98924.84
2023-11-30T17:31:29.002Z,98936.81
2023-11-30T17:33:52.633Z,98943.41
2023-11-30T17:36:15.080Z,98938.72
2023-11-30T17:38:37.556Z,98946.22
2023-11-30T17:40:59.576Z,98940.00
2023-11-30T17:43:21.460Z,98930.28
2023-11-30T17:45:43.457Z,98924.88
2023-11-30T17:48:06.386Z,98928.97
2023-11-30T17:50:28.438Z,98940.84
2023-11-30T17:52:50.970Z,98955.41
2023-11-30T17:55:13.823Z,98940.16
2023-11-30T17:57:35.733Z,98952.84
2023-11-30T17:59:57.791Z,98952.69
2023-11-30T18:02:20.325Z,98963.59
2023-11-30T18:04:42.383Z,98976.53
2023-11-30T18:07:08.520Z,98963.38
2023-11-30T18:09:30.453Z,98942.81
2023-11-30T18:11:52.369Z,98942.22
2023-11-30T18:14:16.092Z,98956.91
2023-11-30T18:16:38.246Z,98955.16
2023-11-30T18:19:00.320Z,98936.25
2023-11-30T18:21:22.258Z,98928.59
2023-11-30T18:23:44.172Z,98926.66
2023-11-30T18:26:06.211Z,98933.84
2023-11-30T18:28:28.065Z,98942.63
2023-11-30T18:30:50.899Z,98955.53
2023-11-30T18:33:12.878Z,98953.06
2023-11-30T18:35:35.387Z,98966.41
2023-11-30T18:38:01.304Z,98949.03
2023-11-30T18:40:25.294Z,98958.66
2023-11-30T18:42:47.829Z,98973.22
2023-11-30T18:45:10.735Z,98980.03
2023-11-30T18:47:32.656Z,98967.94
2023-11-30T18:49:54.831Z,98965.38
2023-11-30T18:52:17.830Z,98981.31
2023-11-30T18:54:39.997Z,98968.50
2023-11-30T18:57:01.987Z,98964.59
2023-11-30T18:59:23.907Z,98968.34
2023-11-30T19:01:45.911Z,98977.03
2023-11-30T19:04:07.894Z,98978.06
2023-11-30T19:06:29.855Z,98980.66
2023-11-30T19:11:22.519Z,98973.50
2023-11-30T19:13:44.639Z,98980.53
2023-11-30T19:16:07.726Z,98986.41
2023-11-30T19:18:30.643Z,98993.94
2023-11-30T19:20:52.618Z,98994.88
2023-11-30T19:23:15.272Z,98994.78
2023-11-30T19:25:41.973Z,98977.50
2023-11-30T19:28:04.160Z,98981.97
2023-11-30T19:30:26.220Z,98980.34
2023-11-30T19:32:48.213Z,98985.50
2023-11-30T19:35:10.287Z,98977.03
2023-11-30T19:37:32.199Z,98987.38
2023-11-30T19:39:54.142Z,98977.25
2023-11-30T19:42:16.073Z,98974.91
2023-11-30T19:44:37.988Z,98976.66
2023-11-30T19:46:59.939Z,98988.84
2023-11-30T19:49:21.794Z,98999.16
2023-11-30T19:51:43.715Z,99003.63
2023-11-30T19:54:06.034Z,99010.72
2023-11-30T19:56:29.696Z,99003.66
2023-11-30T19:58:51.659Z,99003.88
2023-11-30T20:01:13.933Z,98999.97
2023-11-30T20:03:36.035Z,98998.00
2023-11-30T20:05:58.039Z,99003.16
2023-11-30T20:08:20.010Z,99003.66
2023-11-30T20:10:41.884Z,98998.50
2023-11-30T20:13:04.096Z,98999.41
2023-11-30T20:15:26.042Z,99019.47
2023-11-30T20:17:49.379Z,99017.91
2023-11-30T20:20:11.670Z,99011.94
2023-11-30T20:22:33.680Z,99009.47
2023-11-30T20:24:55.899Z,99009.19
2023-11-30T20:27:17.828Z,99009.38
2023-11-30T20:29:39.707Z,99007.44
2023-11-30T20:32:02.018Z,99012.19
2023-11-30T20:34:23.901Z,99005.84
2023-11-30T20:36:45.818Z,99016.22
2023-11-30T20:39:07.716Z,99016.66
2023-11-30T20:41:29.599Z,99023.66
2023-11-30T20:43:51.930Z,99023.66
2023-11-30T20:46:14.369Z,99019.78
2023-11-30T20:48:36.527Z,99025.94
2023-11-30T20:50:58.400Z,99018.63
2023-11-30T20:53:20.341Z,99034.81
2023-11-30T20:55:44.617Z,99030.69
2023-11-30T20:58:06.608Z,99031.53
2023-11-30T21:00:28.604Z,99028.31
2023-11-30T21:02:50.633Z,99017.69
2023-11-30T21:05:12.705Z,99016.47
2023-11-30T21:07:34.578Z,99012.66
2023-11-30T21:09:57.279Z,99002.22
2023-11-30T21:12:19.160Z,98993.59
2023-11-30T21:14:40.999Z,98992.63
2023-11-30T21:17:02.976Z,98997.00
2023-11-30T21:19:25.895Z,99008.09
2023-11-30T21:21:48.476Z,99022.84
2023-11-30T21:24:10.590Z,99021.09
2023-11-30T21:26:32.592Z,99026.16
2023-11-30T21:28:54.501Z,99030.50
2023-11-30T21:31:16.544Z,99028.84
2023-11-30T21:33:38.959Z,99025.00
2023-11-30T21:36:00.856Z,99019.97
2023-11-30T21:38:23.106Z,99007.91
2023-11-30T21:40:44.948Z,99008.03
2023-11-30T21:43:06.832Z,99007.19
2023-11-30T21:45:28.847Z,99010.19
2023-11-30T21:47:50.765Z,99016.06
2023-11-30T21:50:18.986Z,99019.56
2023-11-30T21:52:41.141Z,99014.41
2023-11-30T21:55:03.078Z,99019.44
2023-11-30T21:57:25.039Z,99017.59
2023-11-30T21:59:46.945Z,99019.97
2023-11-30T22:02:09.045Z,99020.09
2023-11-30T22:04:31.878Z,99021.63
2023-11-30T22:06:54.179Z,99017.81
2023-11-30T22:09:16.055Z,99022.25
2023-11-30T22:11:37.945Z,99013.78
2023-11-30T22:13:59.837Z,99013.69
2023-11-30T22:16:26.537Z,99017.28
2023-11-30T22:18:54.999Z,99014.50
2023-11-30T22:21:16.904Z,99017.94
2023-11-30T22:23:38.866Z,99017.94
2023-11-30T22:26:04.276Z,99022.97
2023-11-30T22:28:26.681Z,99028.00
2023-11-30T22:30:48.609Z,99015.25
2023-11-30T22:33:10.528Z,99030.69
2023-11-30T22:35:32.374Z,99028.84
2023-11-30T22:37:54.451Z,99009.84
2023-11-30T22:40:16.558Z,98999.06
2023-11-30T22:42:38.655Z,98982.88
2023-11-30T22:45:01.993Z,98981.44
2023-11-30T22:47:24.050Z,98989.16
2023-11-30T22:49:46.355Z,98997.69
2023-11-30T22:52:08.351Z,99001.81
2023-11-30T22:54:30.452Z,98994.22
2023-11-30T22:56:52.492Z,99009.97
2023-11-30T22:59:16.384Z,99025.31
2023-11-30T23:01:38.639Z,99030.41
2023-11-30T23:04:02.326Z,99024.28
2023-11-30T23:06:24.421Z,99032.03
2023-11-30T23:08:47.245Z,99048.31
2023-11-30T23:11:10.510Z,99061.81
2023-11-30T23:13:32.352Z,99059.97
2023-11-30T23:15:54.426Z,99077.91
2023-11-30T23:18:17.624Z,99083.69
2023-11-30T23:20:39.641Z,99065.53
2023-11-30T23:23:01.527Z,99058.63
2023-11-30T23:25:23.904Z,99039.16
2023-11-30T23:27:45.804Z,99048.50
2023-11-30T23:30:08.408Z,99040.91
2023-11-30T23:32:30.323Z,99056.47
2023-11-30T23:34:52.294Z,99055.44
2023-11-30T23:37:14.172Z,99043.38
2023-11-30T23:39:36.053Z,99041.72
2023-11-30T23:41:57.998Z,99029.38
2023-11-30T23:44:19.886Z,99024.09
2023-11-30T23:46:41.783Z,99025.66
2023-11-30T23:49:03.728Z,99029.97
2023-11-30T23:51:25.723Z,99042.63
2023-11-30T23:53:47.687Z,99059.66
2023-11-30T23:56:10.224Z,99074.81
2023-11-30T23:58:32.084Z,99073.69
